Latest Weather Observations for Edinburgh

IDS60801

Issued at 7:05 pm CST Friday 1 August 2014 (issued every 30 minutes, with the page automatically refreshed every 10 minutes)

About weather observations | Map of weather stations | Latest weather observations for SA | Other Formats
Station Details ID: 023083 Name: EDINBURGH RAAF Lat: -34.71 Lon: 138.62 Height: 16.54 m
Data from the previous 72 hours. | See also: Recent months at Edinburgh
Date/Time
CST
Temp
°C
App
Temp
°C
Dew
Point
Rel
Hum
%
Delta-T
°C
Wind Press
QNH
hPa
Press
MSL
hPa
Rain
since 9 am
mm
Dir
 
Spd
km/h
Gust
km/h
Spd
kts
Gust
kts
01/07:00pm 6.4 3.4 1.1 69 2.1 S 6 7 3 4 1026.4 - 0.8
01/06:30pm 8.0 5.2 1.8 65 2.5 S 6 7 3 4 1025.9 1025.9 0.8
01/06:00pm 9.0 4.4 1.7 60 3.0 SSW 15 19 8 10 1025.4 1025.4 0.8
01/05:30pm 9.9 4.3 1.5 56 3.5 S 20 26 11 14 1024.9 1024.9 0.8
01/05:00pm 10.7 5.1 1.0 51 4.0 S 20 28 11 15 1024.4 - 0.8
01/04:30pm 11.4 3.2 -1.0 42 4.9 SSW 32 43 17 23 1023.6 1023.6 0.8
01/04:01pm 11.8 4.1 3.3 56 3.7 SSW 33 52 18 28 1023.0 - 0.8
01/04:00pm 11.7 3.6 3.0 55 3.8 SSW 35 52 19 28 1023.0 - 0.8
01/03:30pm 12.0 4.6 3.8 57 3.6 SSW 32 43 17 23 1022.5 1022.5 0.8
01/03:00pm 12.1 3.1 2.3 51 4.2 SSW 39 54 21 29 1022.1 1022.1 0.8
01/02:37pm 12.3 3.9 3.5 55 3.9 SW 37 56 20 30 1021.6 - 0.8
01/02:30pm 12.4 5.0 5.1 61 3.4 SSW 33 44 18 24 1021.6 1021.6 0.8
01/02:00pm 12.1 4.2 4.3 59 3.5 SSW 35 61 19 33 1021.2 - 0.8
01/01:30pm 11.5 2.8 4.3 61 3.2 SSW 39 57 21 31 1020.9 1020.9 0.8
01/01:00pm 11.6 1.9 5.9 68 2.7 SSW 46 57 25 31 1020.4 - 0.8
01/12:30pm 11.1 3.5 5.8 70 2.4 SW 35 46 19 25 1020.5 1020.5 0.8
01/12:09pm 9.7 3.9 6.2 79 1.6 SW 26 33 14 18 1020.7 - 0.8
01/12:00pm 8.1 -0.1 5.0 81 1.4 SSW 37 59 20 32 1020.7 1020.7 0.8
01/11:51am 8.0 -0.2 4.6 79 1.5 SSW 37 67 20 36 1020.7 - 0.8
01/11:35am 10.9 2.6 5.9 71 2.3 SW 39 57 21 31 1020.1 - 0.0
01/11:30am 11.3 2.7 4.5 63 3.1 SW 39 54 21 29 1020.0 1020.0 0.0
01/11:00am 11.3 2.3 4.3 62 3.1 SW 41 54 22 29 1019.7 - 0.0
01/10:30am 10.8 0.7 4.0 63 3.0 SW 46 61 25 33 1019.2 1019.2 0.0
01/10:09am 10.7 2.4 4.0 63 3.0 SW 37 56 20 30 1018.9 - 0.0
01/10:00am 10.7 3.0 5.3 69 2.5 SW 35 46 19 25 1018.8 - 0.0
01/09:30am 10.5 0.1 4.4 66 2.7 SW 48 59 26 32 1017.8 1017.8 0.0
01/09:09am 10.0 0.2 3.5 64 2.8 SW 44 63 24 34 1017.4 - 0.0
01/09:00am 10.0 -1.1 2.6 60 3.2 SW 50 67 27 36 1017.0 1017.0 10.0
01/08:37am 10.3 1.4 3.1 61 3.1 SW 39 61 21 33 1016.2 - 10.0
01/08:30am 9.9 1.1 3.6 65 2.7 SW 39 54 21 29 1016.3 1016.3 10.0
01/08:00am 9.5 0.6 3.3 65 2.7 SW 39 52 21 28 1015.5 - 10.0
01/07:34am 9.8 0.4 2.2 59 3.2 SW 41 59 22 32 1015.0 - 10.0
01/07:30am 9.8 0.4 2.4 60 3.1 SW 41 57 22 31 1014.8 1014.8 10.0
01/07:00am 9.9 -1.2 2.3 59 3.2 SW 50 69 27 37 1014.1 - 10.0
01/06:34am 9.5 -0.4 1.9 59 3.2 SW 43 61 23 33 1013.7 - 10.0
01/06:30am 9.3 -0.5 2.2 61 3.0 SW 43 59 23 32 1013.6 1013.6 10.0
01/06:01am 8.7 -1.9 3.3 69 2.3 WSW 48 67 26 36 1013.2 - 10.0
01/06:00am 8.9 -2.0 3.5 69 2.3 WSW 50 67 27 36 1013.1 1013.1 10.0
01/05:51am 9.0 0.6 3.6 69 2.3 WSW 37 61 20 33 1012.9 - 10.0
01/05:30am 7.6 -0.3 4.2 79 1.5 WSW 35 46 19 25 1012.8 1012.8 10.0
01/05:21am 7.6 -0.7 4.2 79 1.5 WSW 37 46 20 25 1012.6 - 10.0
01/05:14am 8.0 -4.8 4.6 79 1.5 WSW 61 83 33 45 1012.5 - 10.0
01/05:13am 8.3 -5.6 4.7 78 1.6 WSW 67 83 36 45 1012.3 - 10.0
01/05:09am 8.8 -0.2 4.4 74 1.9 WSW 41 72 22 39 1012.4 - 10.0
01/05:00am 8.2 -0.5 3.9 74 1.9 WSW 39 50 21 27 1012.3 - 10.0
01/04:32am 8.6 -1.4 4.2 74 1.9 WSW 46 70 25 38 1012.0 - 10.0
01/04:30am 8.6 -1.0 4.6 76 1.8 WSW 44 59 24 32 1012.2 1012.2 10.0
01/04:00am 8.1 0.1 3.9 75 1.8 WSW 35 54 19 29 1011.9 - 10.0
01/03:30am 7.3 -4.3 3.7 78 1.5 WSW 54 82 29 44 1011.9 1011.9 10.0
01/03:25am 8.2 -3.3 4.2 76 1.7 WSW 54 72 29 39 1011.9 - 10.0
01/03:01am 7.3 0.6 3.7 78 1.5 W 28 50 15 27 1011.8 - 10.0
01/03:00am 7.3 0.6 3.7 78 1.5 W 28 39 15 21 1011.8 1011.8 10.0
01/02:37am 6.9 0.0 4.7 86 1.0 W 30 39 16 21 1011.6 - 10.0
01/02:30am 6.5 -0.7 4.8 89 0.7 WSW 32 43 17 23 1011.8 1011.8 10.0
01/02:21am 5.6 -3.2 3.8 88 0.8 WSW 39 44 21 24 1012.1 - 9.8
01/02:17am 4.6 -8.4 1.3 79 1.3 WSW 59 78 32 42 1012.2 - 9.6
01/02:16am 5.3 -8.1 1.4 76 1.5 WSW 61 78 33 42 1012.1 - 9.2
01/02:15am 8.0 -0.6 4.4 78 1.6 W 39 69 21 37 1012.0 - 8.4
01/02:00am 7.9 1.8 4.8 81 1.4 W 26 39 14 21 1012.0 - 8.2
01/01:30am 7.3 0.7 4.3 81 1.3 W 28 37 15 20 1012.0 1012.0 8.2
01/01:00am 7.8 0.4 4.2 78 1.6 WSW 32 46 17 25 1012.0 - 8.0
01/12:55am 8.1 -0.7 3.8 74 1.9 SW 39 46 21 25 1012.0 - 8.0
01/12:33am 9.2 1.2 3.8 69 2.4 W 35 54 19 29 1011.7 - 8.0
01/12:30am 9.1 0.8 4.1 71 2.2 W 37 46 20 25 1011.7 1011.7 8.0
01/12:09am 9.2 1.2 3.6 68 2.4 W 35 54 19 29 1011.5 - 8.0
01/12:00am 9.1 1.5 3.7 69 2.3 W 33 43 18 23 1011.5 1011.5 8.0
 
Date/Time
CST
Temp
°C
App
Temp
°C
Dew
Point
Rel
Hum
%
Delta-T
°C
Wind Press
QNH
hPa
Press
MSL
hPa
Rain
since 9 am
mm
Dir
 
Spd
km/h
Gust
km/h
Spd
kts
Gust
kts
31/11:33pm 9.3 1.2 3.3 66 2.6 W 35 57 19 31 1011.4 - 8.0
31/11:30pm 9.0 1.3 3.4 68 2.4 W 33 44 18 24 1011.4 1011.4 8.0
31/11:00pm 8.2 1.9 4.0 75 1.8 W 26 33 14 18 1011.3 - 8.0
31/10:30pm 8.6 1.2 4.0 73 2.0 WSW 32 41 17 22 1011.3 1011.3 8.0
31/10:00pm 8.5 1.8 3.8 72 2.0 W 28 39 15 21 1011.1 - 8.0
31/09:30pm 8.7 0.6 3.1 68 2.4 WSW 35 48 19 26 1011.0 1011.0 8.0
31/09:00pm 9.0 1.7 4.6 74 2.0 W 32 43 17 23 1011.0 1011.0 8.0
31/08:30pm 8.5 2.1 5.1 79 1.5 WSW 28 35 15 19 1011.0 1011.0 8.0
31/08:00pm 8.3 1.1 5.1 80 1.4 WSW 32 43 17 23 1010.7 - 8.0
31/07:38pm 8.6 0.1 5.2 79 1.5 SW 39 46 21 25 1010.5 - 8.0
31/07:34pm 9.3 -2.6 5.3 76 1.8 WSW 57 67 31 36 1010.2 - 8.0
31/07:32pm 9.9 2.2 5.3 73 2.1 W 35 61 19 33 1010.2 - 8.0
31/07:30pm 9.8 2.5 5.6 75 1.9 W 33 43 18 23 1010.2 1010.2 8.0
31/07:00pm 9.2 2.5 5.4 77 1.7 W 30 37 16 20 1009.9 - 8.0
31/06:30pm 9.5 2.9 5.9 78 1.7 WSW 30 41 16 22 1009.5 1009.5 8.0
31/06:00pm 9.0 1.0 5.9 81 1.4 SW 37 57 20 31 1009.1 1009.1 8.0
31/05:40pm 9.4 0.8 6.5 82 1.3 WSW 41 59 22 32 1008.7 - 8.0
31/05:30pm 9.7 1.4 6.2 79 1.6 SW 39 52 21 28 1008.2 1008.3 7.8
31/05:00pm 9.3 -0.8 7.3 87 0.9 WSW 50 80 27 43 1007.8 - 7.8
31/04:57pm 9.3 -0.9 7.1 86 1.0 WSW 50 80 27 43 1007.8 - 7.8
31/04:53pm 9.9 0.5 7.3 84 1.2 W 46 80 25 43 1007.5 - 7.8
31/04:36pm 10.6 2.4 8.4 86 1.1 W 41 59 22 32 1007.1 - 7.6
31/04:34pm 11.0 3.2 8.4 84 1.3 W 39 59 21 32 1007.0 - 7.4
31/04:30pm 11.2 4.3 8.8 85 1.2 W 35 46 19 25 1006.8 1006.9 7.4
31/04:00pm 10.7 4.4 9.1 90 0.8 W 32 48 17 26 1006.7 - 7.4
31/03:40pm 10.3 3.9 8.7 90 0.8 W 32 41 17 22 1006.7 - 7.0
31/03:30pm 10.0 2.6 8.4 90 0.8 W 37 52 20 28 1006.7 1006.8 6.8
31/03:24pm 9.9 0.3 8.0 88 0.9 W 48 67 26 36 1006.7 - 6.8
31/03:19pm 10.1 -1.3 7.5 84 1.2 W 57 67 31 36 1006.8 - 6.6
31/03:17pm 11.6 4.8 9.3 86 1.2 WNW 35 56 19 30 1006.6 - 6.2
31/03:00pm 11.9 6.1 9.6 86 1.2 WNW 30 39 16 21 1005.9 1006.0 5.2
31/02:30pm 11.4 5.3 9.8 90 0.8 W 32 41 17 22 1005.9 1006.0 5.2
31/02:26pm 11.3 5.0 9.7 90 0.8 W 33 41 18 22 1005.9 - 5.2
31/02:00pm 10.7 4.0 9.5 92 0.6 WSW 35 46 19 25 1005.8 - 5.0
31/01:31pm 10.5 4.7 9.3 92 0.6 SW 30 48 16 26 1005.1 - 3.6
31/01:30pm 10.8 5.4 9.6 92 0.6 SW 28 48 15 26 1005.2 1005.3 3.6
31/01:26pm 11.2 6.3 10.1 93 0.6 SW 26 33 14 18 1005.1 - 3.2
31/01:25pm 11.2 6.3 10.1 93 0.6 SW 26 33 14 18 1005.1 - 3.2
31/01:01pm 12.2 6.0 10.1 87 1.1 SW 33 50 18 27 1004.9 - 0.8
31/01:00pm 12.1 5.4 9.7 85 1.2 SW 35 50 19 27 1004.8 - 0.6
31/12:56pm 13.3 5.6 8.8 74 2.3 WSW 39 50 21 27 1004.7 - 0.0
31/12:51pm 14.9 7.4 9.5 70 2.8 WNW 39 57 21 31 1004.3 - 0.0
31/12:30pm 15.0 6.5 8.5 65 3.3 WNW 43 56 23 30 1004.6 1004.7 0.0
31/12:00pm 15.8 6.6 8.1 60 3.9 NW 46 65 25 35 1004.9 1005.0 0.0
31/11:30am 16.8 7.3 8.2 57 4.4 NW 48 69 26 37 1005.3 1005.4 0.0
31/11:00am 16.8 8.3 8.5 58 4.2 WNW 43 61 23 33 1005.7 - 0.0
31/10:50am 16.5 7.9 8.2 58 4.2 NW 43 61 23 33 1005.8 - 0.0
31/10:30am 16.1 8.4 8.6 61 3.8 NW 39 56 21 30 1006.0 1006.1 0.0
31/10:20am 16.0 8.8 9.0 63 3.6 NW 37 56 20 30 1006.0 - 0.0
31/10:00am 15.4 8.1 8.6 64 3.5 NW 37 48 20 26 1006.4 - 0.0
31/09:58am 15.3 7.6 8.5 64 3.4 NW 39 48 21 26 1006.5 - 0.0
31/09:30am 13.8 9.3 8.6 71 2.6 N 22 32 12 17 1007.0 1007.1 0.0
31/09:00am 12.3 8.6 8.0 75 2.1 N 17 20 9 11 1007.3 1007.4 0.0
31/08:30am 11.3 7.5 7.4 77 1.9 N 17 22 9 12 1007.5 1007.6 0.0
31/08:00am 10.5 6.2 6.8 78 1.7 N 19 24 10 13 1007.6 - 0.0
31/07:30am 10.1 5.5 6.6 79 1.6 N 20 26 11 14 1007.3 1007.4 0.0
31/07:00am 9.0 5.3 6.4 84 1.2 N 15 22 8 12 1007.9 - 0.0
31/06:30am 9.1 5.0 6.2 82 1.3 N 17 20 9 11 1007.8 1007.9 0.0
31/06:00am 9.3 4.9 6.4 82 1.3 N 19 22 10 12 1007.7 1007.8 0.0
31/05:30am 9.4 5.7 6.3 81 1.4 N 15 19 8 10 1008.0 1008.1 0.0
31/05:00am 10.3 5.4 6.8 79 1.6 N 22 28 12 15 1007.7 - 0.0
31/04:30am 9.6 5.6 6.5 81 1.4 N 17 22 9 12 1008.2 1008.3 0.0
31/04:00am 10.0 5.7 6.9 81 1.5 N 19 24 10 13 1008.5 - 0.0
31/03:30am 10.1 5.8 7.0 81 1.5 N 19 26 10 14 1009.3 1009.3 0.0
31/03:00am 10.2 6.7 7.3 82 1.4 NNE 15 20 8 11 1009.7 1009.7 0.0
31/02:30am 9.6 6.0 6.9 83 1.3 N 15 19 8 10 1010.3 1010.3 0.0
31/02:00am 10.3 6.4 7.2 81 1.5 N 17 20 9 11 1010.8 - 0.0
31/01:30am 10.4 6.6 7.6 83 1.3 N 17 22 9 12 1011.2 1011.2 0.0
31/01:00am 10.3 6.6 7.9 85 1.2 N 17 22 9 12 1011.4 - 0.0
31/12:30am 8.8 5.7 7.3 90 0.7 N 13 17 7 9 1011.9 1011.9 0.0
31/12:00am 8.9 6.2 7.2 89 0.8 NE 11 13 6 7 1012.3 1012.3 0.0
 
Date/Time
CST
Temp
°C
App
Temp
°C
Dew
Point
Rel
Hum
%
Delta-T
°C
Wind Press
QNH
hPa
Press
MSL
hPa
Rain
since 9 am
mm
Dir
 
Spd
km/h
Gust
km/h
Spd
kts
Gust
kts
30/11:30pm 8.9 6.2 7.2 89 0.8 NNE 11 13 6 7 1012.6 1012.6 0.0
30/11:00pm 9.5 6.5 7.8 89 0.8 NNE 13 15 7 8 1013.1 - 0.0
30/10:30pm 9.4 7.2 7.7 89 0.8 NNE 9 11 5 6 1013.5 1013.5 0.0
30/10:00pm 10.0 7.9 8.3 89 0.8 N 9 11 5 6 1013.9 - 0.0
30/09:30pm 9.7 6.8 8.0 89 0.8 NNE 13 13 7 7 1014.1 1014.1 0.0
30/09:00pm 10.5 8.0 8.4 87 1.0 N 11 13 6 7 1014.4 1014.4 0.0
30/08:30pm 11.5 10.0 9.1 85 1.2 N 7 9 4 5 1014.5 1014.5 0.0
30/08:00pm 12.6 11.3 10.0 84 1.3 NNW 7 9 4 5 1014.6 - 0.0
30/07:30pm 12.5 11.2 9.9 84 1.3 N 7 11 4 6 1015.0 1015.0 0.0
30/07:00pm 13.6 12.2 10.9 84 1.4 N 9 11 5 6 1015.1 - 0.0
30/06:30pm 13.7 11.6 11.0 84 1.4 N 13 15 7 8 1014.9 1014.9 0.0
30/06:00pm 13.2 10.6 10.6 84 1.4 NNW 15 19 8 10 1014.9 1014.9 0.0
30/05:30pm 14.3 11.0 10.9 80 1.8 NNW 19 22 10 12 1014.8 1014.8 0.0
30/05:00pm 15.6 11.9 11.4 76 2.3 NW 22 32 12 17 1015.0 - 0.0
30/04:30pm 15.7 11.3 11.7 77 2.2 NW 26 37 14 20 1015.1 1015.1 0.0
30/04:00pm 15.8 11.0 11.8 77 2.2 WNW 28 39 15 21 1015.3 - 0.0
30/03:30pm 15.5 12.4 12.1 80 1.8 WNW 20 28 11 15 1015.5 1015.5 0.0
30/03:00pm 15.8 11.2 12.2 79 2.0 WNW 28 37 15 20 1015.7 1015.7 0.0
30/02:30pm 16.1 10.9 11.7 75 2.4 WNW 30 37 16 20 1015.8 1015.8 0.0
30/02:00pm 16.5 11.4 11.9 74 2.5 WNW 30 35 16 19 1015.9 - 0.0
30/01:30pm 16.2 11.2 12.2 77 2.2 WNW 30 41 16 22 1016.4 1016.4 0.0
30/01:00pm 16.1 10.9 11.7 75 2.4 WNW 30 41 16 22 1016.7 - 0.0
30/12:30pm 16.3 11.3 12.1 76 2.3 WNW 30 43 16 23 1017.2 1017.2 0.0
30/12:00pm 16.7 12.3 12.8 78 2.2 WNW 28 35 15 19 1017.8 1017.8 0.0
30/11:30am 16.4 11.0 12.2 76 2.3 WNW 32 41 17 22 1018.0 1018.0 0.0
30/11:00am 16.1 11.0 11.9 76 2.3 WNW 30 43 16 23 1018.6 - 0.0
30/10:30am 15.0 10.6 11.8 81 1.7 WNW 26 35 14 19 1018.9 1018.9 0.0
30/10:00am 14.3 10.2 11.6 84 1.4 WNW 24 32 13 17 1018.9 - 0.0
30/09:30am 13.2 9.4 11.3 88 1.0 WNW 22 32 12 17 1019.1 1019.1 0.0
30/09:17am 13.0 8.8 11.1 88 1.0 NW 24 32 13 17 1019.2 - 0.0
30/09:00am 12.9 9.1 11.0 88 1.0 NW 22 32 12 17 1019.0 1019.0 0.2
30/08:46am 12.8 9.0 11.0 89 0.9 NW 22 28 12 15 1018.9 - 0.2
30/08:30am 12.6 9.1 11.0 90 0.8 NW 20 26 11 14 1018.7 1018.7 0.2
30/08:00am 12.5 8.6 10.9 90 0.8 NW 22 30 12 16 1018.8 - 0.2
30/07:45am 12.6 9.1 11.0 90 0.8 NW 20 26 11 14 1018.8 - 0.2
30/07:30am 12.7 8.9 11.1 90 0.8 NW 22 30 12 16 1018.8 1018.8 0.2
30/07:27am 12.7 9.3 11.1 90 0.8 NW 20 30 11 16 1018.8 - 0.2
30/07:00am 12.5 8.6 10.9 90 0.8 NW 22 30 12 16 1018.6 - 0.2
30/06:41am 12.5 7.8 10.7 89 0.9 NW 26 33 14 18 1018.4 - 0.2
30/06:30am 12.6 9.1 10.8 89 0.9 NW 20 30 11 16 1018.3 1018.3 0.2
30/06:00am 12.7 8.8 10.8 88 1.0 NW 22 30 12 16 1018.2 1018.2 0.2
30/05:30am 12.7 9.2 10.9 89 0.9 NNW 20 26 11 14 1018.0 1018.0 0.2
30/05:00am 12.7 9.2 10.8 88 1.0 NW 20 26 11 14 1018.1 - 0.2
30/04:30am 12.7 9.2 10.9 89 0.9 NNW 20 28 11 15 1018.0 1018.0 0.2
30/04:04am 12.7 9.3 11.1 90 0.8 NW 20 24 11 13 1018.2 - 0.2
30/04:00am 12.7 9.3 11.1 90 0.8 NNW 20 24 11 13 1018.2 - 0.2
30/03:30am 12.8 9.4 11.4 91 0.7 NNW 20 24 11 13 1018.3 1018.3 0.2
30/03:00am 12.9 9.8 11.5 91 0.7 NW 19 22 10 12 1018.5 1018.5 0.2
30/02:54am 12.9 10.1 11.5 91 0.7 NW 17 26 9 14 1018.5 - 0.2
30/02:32am 13.0 9.6 11.4 90 0.8 NW 20 28 11 15 1018.5 - 0.2
30/02:30am 13.0 9.8 11.4 90 0.8 NW 19 26 10 14 1018.5 1018.5 0.2
30/02:00am 12.9 10.1 11.3 90 0.8 NNW 17 22 9 12 1018.8 - 0.2
30/01:30am 13.0 9.6 11.4 90 0.8 NW 20 24 11 13 1019.1 1019.1 0.2
30/01:00am 13.2 9.8 11.4 89 1.0 NW 20 28 11 15 1019.0 - 0.2
30/12:30am 13.4 9.7 11.5 88 1.0 WNW 22 30 12 16 1019.0 1019.0 0.2
30/12:00am 13.6 10.0 11.8 89 1.0 WNW 22 28 12 15 1019.2 1019.2 0.2
 
Date/Time
CST
Temp
°C
App
Temp
°C
Dew
Point
Rel
Hum
%
Delta-T
°C
Wind Press
QNH
hPa
Press
MSL
hPa
Rain
since 9 am
mm
Dir
 
Spd
km/h
Gust
km/h
Spd
kts
Gust
kts
29/11:30pm 13.6 9.2 11.8 89 1.0 WNW 26 32 14 17 1019.2 1019.2 0.2
29/11:00pm 13.5 8.8 11.9 90 0.9 WNW 28 35 15 19 1019.2 - 0.2
29/10:30pm 13.4 9.1 12.0 91 0.7 WNW 26 33 14 18 1019.1 1019.1 0.2
29/10:25pm 13.4 8.3 12.0 91 0.8 WNW 30 39 16 21 1019.1 - 0.2
29/10:06pm 13.8 9.4 11.8 88 1.1 W 26 39 14 21 1019.3 - 0.0
29/10:00pm 13.9 10.3 11.8 87 1.1 WNW 22 28 12 15 1019.4 - 0.0
29/09:30pm 13.4 10.8 12.0 91 0.7 WNW 17 24 9 13 1019.1 1019.1 0.0
29/09:00pm 13.3 10.1 12.0 92 0.7 W 20 28 11 15 1018.9 1018.9 0.0
29/08:50pm 13.3 9.0 12.0 92 0.7 W 26 35 14 19 1018.8 - 0.0
29/08:30pm 13.3 7.8 11.9 91 0.7 W 32 41 17 22 1018.9 1018.9 0.0
29/08:13pm 13.4 6.6 11.8 90 0.9 W 39 52 21 28 1018.7 - 0.0
29/08:00pm 14.1 6.8 11.4 84 1.4 W 41 52 22 28 1018.6 - 0.0
29/07:30pm 14.5 9.6 11.3 81 1.7 W 28 39 15 21 1018.3 1018.3 0.0

Other Formats:

Comma delimited format used in spreadsheet applications
http://www.bom.gov.au/fwo/IDS60801/IDS60801.95676.axf

JavaScript Object Notation format (JSON) in row-major order
http://www.bom.gov.au/fwo/IDS60801/IDS60801.95676.json